Time;durP1;ratioP1;P1;durP2;ratioP2;P2;SDS_P1;SDS_P2;PMS_P1;PMS_P2;Temp;Humidity;BMP_temperature;BMP_pressure;BME280_temperature;BME280_humidity;BME280_pressure;Samples;Min_cycle;Max_cycle;Signal;HPM_P1;HPM_P2
2021/05/17 00:00:39;;;;;;;1.38;0.70;;;13.60;81.50;;;;;;5058868;28;20164;-78
2021/05/17 00:03:07;;;;;;;1.70;0.60;;;13.60;81.80;;;;;;5077554;28;20083;-78
2021/05/17 00:05:33;;;;;;;1.83;0.75;;;13.60;82.00;;;;;;5075777;28;20036;-78
2021/05/17 00:07:58;;;;;;;0.90;0.60;;;13.50;82.50;;;;;;5059033;28;20396;-78
2021/05/17 00:10:26;;;;;;;1.92;0.75;;;13.50;83.20;;;;;;5058788;28;20029;-78
2021/05/17 00:12:52;;;;;;;1.63;0.75;;;13.50;83.10;;;;;;5058689;28;20021;-78
2021/05/17 00:15:19;;;;;;;1.48;0.60;;;13.40;83.60;;;;;;5042912;28;20132;-78
2021/05/17 00:17:46;;;;;;;1.05;0.60;;;13.50;83.50;;;;;;5058517;28;20025;-78
2021/05/17 00:20:14;;;;;;;1.33;0.60;;;13.50;83.10;;;;;;5058490;28;20053;-78
2021/05/17 00:22:40;;;;;;;1.00;0.60;;;13.60;83.10;;;;;;5058606;28;20032;-78
2021/05/17 00:25:06;;;;;;;1.77;0.77;;;13.50;82.80;;;;;;5058091;28;20044;-78
2021/05/17 00:27:32;;;;;;;1.55;0.77;;;13.50;83.20;;;;;;5058304;28;20033;-78
2021/05/17 00:29:57;;;;;;;1.10;0.60;;;13.40;83.50;;;;;;5058302;28;20025;-78
2021/05/17 00:32:23;;;;;;;1.00;0.63;;;13.50;83.10;;;;;;5051221;28;20618;-78
2021/05/17 00:34:49;;;;;;;1.30;0.60;;;13.50;82.60;;;;;;5058320;28;20032;-78
2021/05/17 00:37:15;;;;;;;1.30;0.82;;;13.50;82.50;;;;;;5081655;28;20085;-78
2021/05/17 00:39:42;;;;;;;1.13;0.63;;;13.50;83.00;;;;;;5056017;28;20025;-78
2021/05/17 00:42:09;;;;;;;1.52;0.77;;;13.40;83.20;;;;;;5058204;28;20022;-78
2021/05/17 00:44:38;;;;;;;1.00;0.57;;;13.50;83.30;;;;;;5058250;28;20013;-78
2021/05/17 00:47:14;;;;;;;1.23;0.73;;;13.50;83.30;;;;;;5058528;28;20055;-78
2021/05/17 00:49:42;;;;;;;0.95;0.63;;;13.50;82.90;;;;;;5040078;28;20033;-78
2021/05/17 00:52:09;;;;;;;1.02;0.73;;;13.50;82.90;;;;;;5057987;28;20104;-78
2021/05/17 00:54:35;;;;;;;1.33;0.80;;;13.60;82.50;;;;;;5057611;28;20021;-78
2021/05/17 00:57:00;;;;;;;1.30;0.68;;;13.60;81.90;;;;;;5055558;28;20025;-78
2021/05/17 00:59:26;;;;;;;1.08;0.55;;;13.50;82.30;;;;;;5057820;28;20031;-78
2021/05/17 01:01:52;;;;;;;1.48;0.70;;;13.50;82.20;;;;;;5057849;28;20024;-78
2021/05/17 01:04:18;;;;;;;1.13;0.70;;;13.50;81.70;;;;;;5057977;28;20033;-78
2021/05/17 01:06:51;;;;;;;0.90;0.57;;;13.50;81.90;;;;;;5058172;28;20033;-78
2021/05/17 01:09:17;;;;;;;1.25;0.60;;;13.50;81.70;;;;;;5039606;28;20495;-78
2021/05/17 01:11:44;;;;;;;1.60;0.65;;;13.50;81.90;;;;;;5057723;28;20039;-78
2021/05/17 01:14:10;;;;;;;1.50;0.75;;;13.50;81.30;;;;;;5057692;28;20036;-78
2021/05/17 01:16:36;;;;;;;1.55;0.70;;;13.50;81.50;;;;;;5057955;28;20040;-78
2021/05/17 01:19:08;;;;;;;1.73;0.73;;;13.50;81.40;;;;;;5057830;28;20084;-78
2021/05/17 01:21:37;;;;;;;0.80;0.50;;;13.60;81.40;;;;;;5039486;28;20025;-78
2021/05/17 01:24:04;;;;;;;1.17;0.60;;;13.50;81.20;;;;;;5039499;28;20051;-78
2021/05/17 01:26:33;;;;;;;0.77;0.50;;;13.50;81.30;;;;;;5063944;28;20041;-78
2021/05/17 01:29:04;;;;;;;1.23;0.60;;;13.60;81.10;;;;;;5057404;28;20758;-78
2021/05/17 01:31:30;;;;;;;2.05;0.77;;;13.60;81.20;;;;;;5057315;28;20511;-78
2021/05/17 01:33:56;;;;;;;1.15;0.63;;;13.70;81.40;;;;;;5057549;28;20029;-78
2021/05/17 01:36:23;;;;;;;1.25;0.88;;;13.60;81.60;;;;;;5065890;28;20065;-78
2021/05/17 01:38:51;;;;;;;1.50;0.73;;;13.60;81.80;;;;;;5079051;28;20073;-78
2021/05/17 01:41:19;;;;;;;1.80;0.70;;;13.50;81.80;;;;;;5057181;28;20083;-78
2021/05/17 01:43:52;;;;;;;0.88;0.63;;;13.40;82.10;;;;;;5057130;28;20031;-78
2021/05/17 01:46:21;;;;;;;1.98;0.70;;;13.30;82.30;;;;;;5057088;28;20492;-78
2021/05/17 01:48:47;;;;;;;1.35;0.65;;;13.40;82.60;;;;;;5042094;28;20035;-78
2021/05/17 01:51:19;;;;;;;1.40;0.70;;;13.40;82.50;;;;;;5058816;28;20032;-78
2021/05/17 01:53:46;;;;;;;1.23;0.68;;;13.40;82.40;;;;;;5076775;28;20099;-78
2021/05/17 01:56:14;;;;;;;1.27;0.60;;;13.50;82.30;;;;;;5076585;28;20024;-78
2021/05/17 01:58:40;;;;;;;1.63;0.80;;;13.40;82.40;;;;;;5055003;28;20025;-78
2021/05/17 02:01:08;;;;;;;1.20;0.60;;;13.50;82.00;;;;;;5056788;28;20029;-78
2021/05/17 02:03:38;;;;;;;0.90;0.40;;;13.30;83.00;;;;;;5057293;28;20017;-78
2021/05/17 02:06:08;;;;;;;;;;;13.30;83.20;;;;;;5038986;28;20027;-78
2021/05/17 02:08:38;;;;;;;1.40;0.70;;;13.30;83.40;;;;;;5055640;28;19909;-78
2021/05/17 02:11:13;;;;;;;0.98;0.70;;;13.30;83.30;;;;;;5075707;28;20060;-78
2021/05/17 02:13:40;;;;;;;1.10;0.63;;;13.30;83.00;;;;;;5068654;28;20462;-78
2021/05/17 02:16:08;;;;;;;1.48;0.70;;;13.30;83.00;;;;;;5038445;28;20110;-78
2021/05/17 02:18:38;;;;;;;1.17;0.50;;;13.30;83.50;;;;;;5056296;28;20017;-78
2021/05/17 02:21:04;;;;;;;1.55;0.60;;;13.30;83.20;;;;;;5056267;28;20498;-78
2021/05/17 02:23:32;;;;;;;0.95;0.60;;;13.30;83.20;;;;;;5056121;28;20052;-77
2021/05/17 02:25:59;;;;;;;1.15;0.60;;;13.40;83.60;;;;;;5056779;28;20017;-78
2021/05/17 02:28:25;;;;;;;1.30;0.50;;;13.40;82.70;;;;;;5056921;28;20078;-78
2021/05/17 02:30:52;;;;;;;1.85;0.60;;;13.30;82.80;;;;;;5056809;28;20063;-78
2021/05/17 02:33:18;;;;;;;0.70;0.52;;;13.20;83.10;;;;;;5056364;28;20057;-78
2021/05/17 02:35:44;;;;;;;0.80;0.57;;;13.20;83.50;;;;;;5044687;28;20753;-78
2021/05/17 02:38:10;;;;;;;0.93;0.60;;;13.20;83.60;;;;;;5084473;28;20125;-78
2021/05/17 02:40:37;;;;;;;1.13;0.73;;;13.20;83.50;;;;;;5076059;28;20024;-78
2021/05/17 02:43:08;;;;;;;1.40;0.60;;;13.00;84.10;;;;;;5057447;28;20036;-78
2021/05/17 02:45:36;;;;;;;1.10;0.70;;;12.90;84.50;;;;;;5075889;28;20017;-78
2021/05/17 02:48:04;;;;;;;1.30;0.60;;;12.90;84.80;;;;;;5067029;28;20033;-78
2021/05/17 02:50:36;;;;;;;1.30;0.80;;;12.90;84.80;;;;;;5055687;28;20032;-78
2021/05/17 02:53:22;;;;;;;0.95;0.60;;;12.90;85.00;;;;;;5055646;28;20108;-78
2021/05/17 02:55:50;;;;;;;1.27;0.70;;;12.90;85.00;;;;;;5055327;28;20029;-78
2021/05/17 02:58:18;;;;;;;1.13;0.73;;;13.10;84.70;;;;;;5048641;28;20029;-78
2021/05/17 03:00:49;;;;;;;1.17;0.70;;;13.10;84.50;;;;;;5037652;28;20040;-78
2021/05/17 03:03:16;;;;;;;1.38;0.80;;;13.10;84.30;;;;;;5054474;28;20025;-78
2021/05/17 03:05:44;;;;;;;1.50;0.70;;;13.10;84.20;;;;;;5055651;28;20107;-78
2021/05/17 03:08:14;;;;;;;1.73;0.93;;;13.00;84.50;;;;;;5056047;28;20035;-78
2021/05/17 03:10:43;;;;;;;1.85;0.88;;;13.00;84.50;;;;;;5055477;28;20032;-78
2021/05/17 03:13:17;;;;;;;0.90;0.67;;;12.90;84.60;;;;;;5055815;28;20083;-78
2021/05/17 03:15:44;;;;;;;0.90;0.60;;;12.90;84.40;;;;;;5055870;28;20092;-78
2021/05/17 03:18:11;;;;;;;0.88;0.57;;;13.00;84.30;;;;;;5055293;28;20028;-78
2021/05/17 03:20:38;;;;;;;1.77;0.70;;;13.00;84.00;;;;;;5055609;28;20079;-78
2021/05/17 03:23:14;;;;;;;1.17;0.68;;;13.00;84.10;;;;;;5037345;28;20025;-78
2021/05/17 03:25:48;;;;;;;1.17;0.70;;;13.00;83.70;;;;;;5053833;28;20103;-78
2021/05/17 03:28:14;;;;;;;1.42;0.80;;;13.00;84.00;;;;;;5055777;28;20049;-78
2021/05/17 03:30:40;;;;;;;1.60;0.60;;;13.00;83.60;;;;;;5037245;28;20115;-78
2021/05/17 03:33:06;;;;;;;1.83;0.90;;;13.00;83.40;;;;;;5055336;28;20068;-78
2021/05/17 03:35:32;;;;;;;0.90;0.60;;;13.00;83.30;;;;;;5037163;28;20052;-78
2021/05/17 03:37:58;;;;;;;1.05;0.65;;;13.00;83.60;;;;;;5072792;28;20028;-78
2021/05/17 03:40:24;;;;;;;1.45;0.70;;;13.00;83.40;;;;;;5077219;28;20123;-78
2021/05/17 03:42:50;;;;;;;1.35;0.75;;;13.10;83.30;;;;;;5070924;28;20372;-78
2021/05/17 03:45:16;;;;;;;1.05;0.65;;;13.00;83.10;;;;;;5055429;28;20075;-78
2021/05/17 03:47:42;;;;;;;1.00;0.60;;;13.10;82.80;;;;;;5037212;28;20037;-78
2021/05/17 03:50:10;;;;;;;1.00;0.70;;;13.00;82.60;;;;;;5055621;28;20048;-78
2021/05/17 03:52:36;;;;;;;1.15;0.70;;;13.00;82.90;;;;;;5053536;28;20029;-78
2021/05/17 03:55:04;;;;;;;1.00;0.60;;;12.90;83.60;;;;;;5074693;28;20051;-78
2021/05/17 03:57:29;;;;;;;1.02;0.65;;;12.90;83.30;;;;;;5056842;28;20488;-78
2021/05/17 03:59:55;;;;;;;1.48;0.85;;;12.90;83.30;;;;;;5055736;28;20115;-78
2021/05/17 04:02:23;;;;;;;0.88;0.60;;;13.00;83.10;;;;;;5037166;28;20033;-78
2021/05/17 04:15:35;;;;;;;1.13;0.65;;;12.80;83.80;;;;;;5054802;28;20565;-78
2021/05/17 04:18:01;;;;;;;1.08;0.63;;;12.80;83.90;;;;;;5043065;28;20033;-78
2021/05/17 04:20:27;;;;;;;1.27;0.80;;;12.80;84.00;;;;;;5056897;28;20483;-78
2021/05/17 04:22:52;;;;;;;0.88;0.70;;;12.70;83.80;;;;;;5074690;28;20028;-78
2021/05/17 04:25:18;;;;;;;0.85;0.60;;;12.70;84.00;;;;;;5056871;28;20083;-78
2021/05/17 04:27:44;;;;;;;0.75;0.60;;;12.70;84.80;;;;;;5054571;28;20032;-77
2021/05/17 04:30:10;;;;;;;0.60;0.52;;;12.70;83.60;;;;;;5054862;28;20167;-78
2021/05/17 04:32:37;;;;;;;1.10;0.80;;;12.70;83.80;;;;;;5038947;28;20758;-78
2021/05/17 04:35:03;;;;;;;0.90;0.60;;;12.70;84.10;;;;;;5040623;28;20036;-78
2021/05/17 04:37:28;;;;;;;1.30;0.70;;;12.60;84.20;;;;;;5085435;28;20035;-78
2021/05/17 04:39:54;;;;;;;0.93;0.60;;;12.60;84.20;;;;;;5075030;28;20028;-78
2021/05/17 04:42:20;;;;;;;0.75;0.60;;;12.60;84.30;;;;;;5058214;28;20076;-78
2021/05/17 04:44:45;;;;;;;1.33;0.68;;;12.60;84.20;;;;;;5056800;28;20578;-78
2021/05/17 04:47:11;;;;;;;1.10;0.60;;;12.60;84.10;;;;;;5058000;28;20041;-78
2021/05/17 04:49:37;;;;;;;1.00;0.57;;;12.60;84.30;;;;;;5056405;28;20124;-78
2021/05/17 04:52:02;;;;;;;0.88;0.50;;;12.50;84.20;;;;;;5058019;28;20661;-78
2021/05/17 04:54:28;;;;;;;0.73;0.57;;;12.60;84.40;;;;;;5040206;28;20025;-78
2021/05/17 04:56:54;;;;;;;0.93;0.63;;;12.60;84.50;;;;;;5057727;28;20086;-78
2021/05/17 04:59:20;;;;;;;1.20;0.60;;;12.60;84.30;;;;;;5057708;28;20056;-79
2021/05/17 05:01:46;;;;;;;1.52;0.60;;;12.70;83.70;;;;;;5042872;28;20031;-80
2021/05/17 05:04:11;;;;;;;0.90;0.63;;;12.80;83.60;;;;;;5069880;28;20162;-78
2021/05/17 05:06:37;;;;;;;1.08;0.70;;;12.90;83.40;;;;;;5074096;28;20052;-79
2021/05/17 05:09:03;;;;;;;1.20;0.50;;;12.80;83.50;;;;;;5057492;28;20037;-78
2021/05/17 05:11:28;;;;;;;1.00;0.60;;;12.80;83.60;;;;;;5057689;28;20033;-78
2021/05/17 05:13:54;;;;;;;0.95;0.55;;;12.90;83.70;;;;;;5057747;28;20113;-78
2021/05/17 05:16:20;;;;;;;1.00;0.57;;;12.90;83.30;;;;;;5057397;28;20033;-79
2021/05/17 05:18:45;;;;;;;0.90;0.77;;;12.90;82.90;;;;;;5057195;28;20078;-79
2021/05/17 05:21:11;;;;;;;0.95;0.60;;;13.00;82.80;;;;;;5077010;28;20029;-81
2021/05/17 05:23:37;;;;;;;0.77;0.47;;;12.90;82.80;;;;;;5077181;28;20513;-79
2021/05/17 05:26:28;;;;;;;1.17;0.60;;;12.90;82.80;;;;;;5062627;28;20043;-78
2021/05/17 05:31:35;;;;;;;1.30;0.75;;;13.00;82.80;;;;;;5097592;28;20038;-85
2021/05/17 05:34:00;;;;;;;1.15;0.65;;;13.00;82.80;;;;;;5070456;28;20455;-79
2021/05/17 05:36:26;;;;;;;1.13;0.73;;;13.00;83.20;;;;;;5064197;28;20020;-79
2021/05/17 05:38:52;;;;;;;0.85;0.55;;;13.00;83.80;;;;;;5062133;28;20364;-78
2021/05/17 05:41:17;;;;;;;1.10;0.70;;;13.00;83.30;;;;;;5076647;28;20038;-79
2021/05/17 05:43:43;;;;;;;0.93;0.60;;;13.10;82.80;;;;;;5048414;28;20029;-80
2021/05/17 05:46:09;;;;;;;1.17;0.60;;;13.20;82.70;;;;;;5039105;28;20025;-78
2021/05/17 05:48:47;;;;;;;0.90;0.60;;;13.40;82.10;;;;;;5038981;28;20045;-78
2021/05/17 05:51:23;;;;;;;1.00;0.60;;;13.50;82.20;;;;;;5056433;28;20029;-80
2021/05/17 05:53:50;;;;;;;0.65;0.50;;;13.50;82.10;;;;;;5058559;28;20012;-79
2021/05/17 05:56:16;;;;;;;0.70;0.47;;;13.70;81.20;;;;;;5072585;28;20031;-83
2021/05/17 05:58:46;;;;;;;1.15;0.60;;;13.80;81.00;;;;;;5055403;28;20033;-79
2021/05/17 06:01:12;;;;;;;0.90;0.50;;;13.80;81.10;;;;;;5056143;28;20024;-79
2021/05/17 06:03:39;;;;;;;0.85;0.50;;;13.80;81.00;;;;;;5064538;28;20028;-79
2021/05/17 06:06:07;;;;;;;0.60;0.50;;;13.70;80.90;;;;;;5044248;28;20067;-79
2021/05/17 06:08:34;;;;;;;1.25;0.70;;;13.70;81.40;;;;;;5062718;28;20024;-79
2021/05/17 06:11:00;;;;;;;1.05;0.50;;;13.60;81.20;;;;;;5053019;28;20040;-79
2021/05/17 06:13:26;;;;;;;1.02;0.60;;;13.60;81.60;;;;;;5073916;28;20345;-79
2021/05/17 06:15:52;;;;;;;1.08;0.52;;;13.50;81.10;;;;;;5095655;28;20028;-79
2021/05/17 06:18:18;;;;;;;0.95;0.60;;;13.70;81.40;;;;;;5076069;28;20374;-79
2021/05/17 06:20:44;;;;;;;1.10;0.60;;;14.00;80.90;;;;;;5045642;28;20072;-79
2021/05/17 06:23:13;;;;;;;0.85;0.60;;;14.20;79.90;;;;;;5037170;28;20029;-79
2021/05/17 06:25:39;;;;;;;0.85;0.50;;;14.40;79.20;;;;;;5037321;28;20059;-79
2021/05/17 06:28:05;;;;;;;0.98;0.57;;;14.40;79.00;;;;;;5058976;28;20111;-79
2021/05/17 06:30:35;;;;;;;0.80;0.50;;;14.40;78.80;;;;;;5056481;28;20035;-79
2021/05/17 06:33:04;;;;;;;0.93;0.47;;;14.50;79.10;;;;;;5056415;28;20459;-79
2021/05/17 06:35:32;;;;;;;1.13;0.68;;;14.40;78.60;;;;;;5072837;28;20032;-79
2021/05/17 06:37:58;;;;;;;0.70;0.43;;;14.30;78.90;;;;;;5075170;28;20013;-79
2021/05/17 06:40:24;;;;;;;0.50;0.40;;;14.20;78.80;;;;;;5062862;28;20506;-79
2021/05/17 06:42:50;;;;;;;0.70;0.40;;;14.20;79.00;;;;;;5049092;28;20028;-79
2021/05/17 06:45:16;;;;;;;0.80;0.43;;;14.30;78.80;;;;;;5055481;28;20113;-79
2021/05/17 06:47:43;;;;;;;0.98;0.52;;;14.30;78.70;;;;;;5053016;28;20041;-79
2021/05/17 06:50:09;;;;;;;0.47;0.40;;;14.40;78.60;;;;;;5046007;28;20088;-79
2021/05/17 06:52:35;;;;;;;0.50;0.43;;;14.50;78.60;;;;;;5047386;28;20127;-79
2021/05/17 06:55:11;;;;;;;0.93;0.50;;;14.70;78.10;;;;;;5064511;28;20112;-79
2021/05/17 07:00:12;;;;;;;0.73;0.40;;;14.90;76.80;;;;;;5065986;28;20048;-80
2021/05/17 07:02:39;;;;;;;0.80;0.40;;;15.00;75.90;;;;;;5064498;28;20025;-79
2021/05/17 07:05:06;;;;;;;0.70;0.45;;;15.20;75.90;;;;;;5062697;28;20388;-80
2021/05/17 07:12:51;;;;;;;0.80;0.40;;;15.90;74.00;;;;;;5065413;28;20094;-80
2021/05/17 07:15:17;;;;;;;0.80;0.40;;;17.00;71.70;;;;;;5064190;28;20067;-80
2021/05/17 07:17:44;;;;;;;0.60;0.30;;;18.60;65.50;;;;;;5065078;28;20025;-80
2021/05/17 07:20:13;;;;;;;0.40;0.20;;;19.90;62.90;;;;;;5065612;28;20048;-78
2021/05/17 07:25:23;;;;;;;0.47;0.30;;;19.30;60.00;;;;;;5063203;28;20062;-78
2021/05/17 07:27:49;;;;;;;0.90;0.40;;;18.90;60.60;;;;;;5047246;28;20025;-79
2021/05/17 07:30:16;;;;;;;0.73;0.40;;;18.50;62.70;;;;;;5063538;28;20037;-78
2021/05/17 07:32:41;;;;;;;0.50;0.20;;;18.20;63.90;;;;;;5066723;28;20033;-78
2021/05/17 07:35:08;;;;;;;0.60;0.25;;;17.80;65.10;;;;;;5048124;28;20080;-79
2021/05/17 07:37:33;;;;;;;0.82;0.30;;;17.80;65.00;;;;;;5065467;28;20091;-79
2021/05/17 07:39:59;;;;;;;0.73;0.30;;;18.20;66.10;;;;;;5062754;28;20068;-80
2021/05/17 07:42:25;;;;;;;0.63;0.35;;;18.80;63.00;;;;;;5048083;28;20020;-79
2021/05/17 07:44:50;;;;;;;0.38;0.30;;;18.40;63.90;;;;;;5042345;28;20040;-79
2021/05/17 07:47:16;;;;;;;0.50;0.25;;;18.30;65.40;;;;;;5046416;28;20040;-79
2021/05/17 07:49:43;;;;;;;0.65;0.30;;;18.00;65.40;;;;;;5063402;28;20017;-79
2021/05/17 07:52:10;;;;;;;0.47;0.30;;;17.70;65.60;;;;;;5063225;28;20028;-79
2021/05/17 07:54:37;;;;;;;0.47;0.20;;;17.20;66.90;;;;;;5045347;28;20111;-79
2021/05/17 07:57:04;;;;;;;0.57;0.40;;;17.10;67.70;;;;;;5044118;28;20035;-79
2021/05/17 07:59:31;;;;;;;0.70;0.40;;;17.10;68.90;;;;;;5048871;28;20058;-79
2021/05/17 08:01:57;;;;;;;0.60;0.40;;;17.10;68.90;;;;;;5059929;28;20021;-79
2021/05/17 08:04:23;;;;;;;0.73;0.35;;;17.10;68.80;;;;;;5049905;28;20021;-80
2021/05/17 08:06:50;;;;;;;0.77;0.50;;;17.20;68.00;;;;;;5066931;28;20507;-79
2021/05/17 08:09:16;;;;;;;0.63;0.40;;;17.30;68.30;;;;;;5060889;28;20025;-80
2021/05/17 08:11:43;;;;;;;0.95;0.43;;;17.30;66.80;;;;;;5066461;28;20028;-80
2021/05/17 08:14:10;;;;;;;1.00;0.47;;;17.20;67.50;;;;;;5061659;28;20029;-80
2021/05/17 08:16:35;;;;;;;0.73;0.30;;;17.30;67.60;;;;;;5065964;28;20028;-79
2021/05/17 08:19:01;;;;;;;0.70;0.40;;;17.90;65.50;;;;;;5048477;28;20035;-78
2021/05/17 08:21:27;;;;;;;0.73;0.32;;;18.50;63.70;;;;;;5049152;28;20124;-78
2021/05/17 08:23:55;;;;;;;0.68;0.30;;;18.40;61.80;;;;;;5051749;28;20070;-79
2021/05/17 08:26:21;;;;;;;0.57;0.40;;;;;;;;;;5075709;28;20074;-79
2021/05/17 08:28:48;;;;;;;0.40;0.20;;;;;;;;;;5062758;28;20020;-79
2021/05/17 08:31:16;;;;;;;0.47;0.20;;;19.70;60.00;;;;;;5068265;28;20459;-79
2021/05/17 08:33:43;;;;;;;0.70;0.30;;;;;;;;;;5073622;28;20013;-79
2021/05/17 08:36:09;;;;;;;0.88;0.30;;;21.70;53.40;;;;;;5056234;28;20036;-78
2021/05/17 08:38:35;;;;;;;0.45;0.20;;;21.40;53.00;;;;;;5065102;28;20059;-79
2021/05/17 08:41:02;;;;;;;1.15;0.30;;;;;;;;;;5068486;28;20020;-79
2021/05/17 08:43:28;;;;;;;0.57;0.30;;;;;;;;;;5050383;28;22087;-79
2021/05/17 08:45:55;;;;;;;0.63;0.20;;;;;;;;;;5047582;28;20035;-79
2021/05/17 08:48:21;;;;;;;0.55;0.20;;;;;;;;;;5066345;28;20031;-79
2021/05/17 08:50:47;;;;;;;0.20;0.10;;;;;;;;;;5067533;28;20031;-79
2021/05/17 08:53:13;;;;;;;0.50;0.20;;;20.80;53.90;;;;;;5047045;28;20032;-79
2021/05/17 08:55:40;;;;;;;0.22;0.15;;;21.10;53.00;;;;;;5048589;28;20501;-79
2021/05/17 08:58:06;;;;;;;0.80;0.50;;;;;;;;;;5069474;28;20021;-79
2021/05/17 09:00:32;;;;;;;0.45;0.30;;;;;;;;;;5050918;28;20162;-79
2021/05/17 09:02:59;;;;;;;0.82;0.20;;;;;;;;;;5048193;28;20510;-79
2021/05/17 09:05:32;;;;;;;0.43;0.20;;;;;;;;;;5047583;28;20028;-82
2021/05/17 09:08:01;;;;;;;0.50;0.20;;;20.60;51.10;;;;;;5048143;28;20131;-79
2021/05/17 09:10:33;;;;;;;0.60;0.20;;;;;;;;;;5051499;28;20514;-79
2021/05/17 09:13:03;;;;;;;0.47;0.20;;;21.40;52.50;;;;;;5048621;28;20028;-79
2021/05/17 09:15:32;;;;;;;;;;;21.70;51.30;;;;;;5068057;28;20040;-79
2021/05/17 09:17:59;;;;;;;0.80;0.52;;;;;;;;;;5047395;28;19912;-79
2021/05/17 09:20:31;;;;;;;0.50;0.20;;;21.10;51.00;;;;;;5047168;28;20024;-79
2021/05/17 09:23:06;;;;;;;0.38;0.20;;;21.10;51.00;;;;;;5049470;28;20024;-79
2021/05/17 09:25:31;;;;;;;0.15;0.10;;;20.80;51.70;;;;;;5046489;28;20145;-79
2021/05/17 09:28:06;;;;;;;0.70;0.20;;;20.50;53.70;;;;;;5049472;28;20037;-79
2021/05/17 09:30:52;;;;;;;0.88;0.60;;;;;;;;;;5066586;28;20044;-79
2021/05/17 09:33:19;;;;;;;0.50;0.30;;;;;;;;;;5065148;28;20032;-79
2021/05/17 09:35:46;;;;;;;0.30;0.10;;;;;;;;;;5065044;28;20036;-79
2021/05/17 09:38:24;;;;;;;0.30;0.10;;;;;;;;;;5061108;28;20037;-79
2021/05/17 09:40:58;;;;;;;0.25;0.10;;;;;;;;;;5048560;28;20036;-79
2021/05/17 09:43:24;;;;;;;0.30;0.10;;;;;;;;;;5044599;28;20037;-79
2021/05/17 09:45:50;;;;;;;0.63;0.20;;;;;;;;;;5065322;28;20021;-80
2021/05/17 09:48:21;;;;;;;0.77;0.38;;;;;;;;;;5048768;28;20021;-83
2021/05/17 09:51:07;;;;;;;0.25;0.20;;;;;;;;;;5065892;28;20018;-82
2021/05/17 09:53:43;;;;;;;0.47;0.10;;;;;;;;;;5066734;28;20132;-82
2021/05/17 09:56:10;;;;;;;0.30;0.10;;;;;;;;;;5066565;28;20028;-82
2021/05/17 09:58:45;;;;;;;0.38;0.20;;;20.10;54.50;;;;;;5065641;28;20120;-81
2021/05/17 10:01:11;;;;;;;0.30;0.20;;;;;;;;;;5064377;28;20009;-81
2021/05/17 10:03:38;;;;;;;0.40;0.20;;;;;;;;;;5066394;28;20084;-82
2021/05/17 10:06:04;;;;;;;0.30;0.20;;;;;;;;;;5066052;28;20028;-82
2021/05/17 10:08:30;;;;;;;0.20;0.20;;;;;;;;;;5064426;28;20089;-82
2021/05/17 10:10:57;;;;;;;0.25;0.20;;;;;;;;;;5063877;28;20028;-83
2021/05/17 10:13:23;;;;;;;0.50;0.20;;;;;;;;;;5047102;28;20032;-88
2021/05/17 10:15:49;;;;;;;0.30;0.20;;;;;;;;;;5065601;28;20029;-76
2021/05/17 10:18:15;;;;;;;0.30;0.17;;;;;;;;;;5064208;28;20033;-78
2021/05/17 10:20:42;;;;;;;0.20;0.10;;;;;;;;;;5068955;28;20611;-82
2021/05/17 10:23:09;;;;;;;0.35;0.20;;;;;;;;;;5065285;28;20506;-81
2021/05/17 10:25:35;;;;;;;0.10;0.10;;;;;;;;;;5045574;28;20407;-89
2021/05/17 10:28:07;;;;;;;0.20;0.00;;;;;;;;;;5042624;28;20021;-83
2021/05/17 10:30:35;;;;;;;0.15;0.08;;;;;;;;;;5044209;28;20025;-82
2021/05/17 10:33:02;;;;;;;0.10;0.00;;;;;;;;;;5047720;28;20021;-86
2021/05/17 10:35:49;;;;;;;0.13;0.00;;;;;;;;;;5045600;28;20025;-90
2021/05/17 10:38:36;;;;;;;0.25;0.10;;;23.20;46.10;;;;;;5047656;28;20842;-84
2021/05/17 10:46:39;;;;;;;0.40;0.20;;;22.50;51.20;;;;;;5044245;28;20100;-82
2021/05/17 10:49:22;;;;;;;0.10;0.10;;;;;;;;;;5046689;28;20028;-84
2021/05/17 10:51:53;;;;;;;0.15;0.10;;;22.70;51.90;;;;;;5044222;28;20400;-83
2021/05/17 10:54:35;;;;;;;0.25;0.10;;;23.10;48.80;;;;;;5045960;28;20025;-81
2021/05/17 10:57:05;;;;;;;0.30;0.10;;;23.10;49.50;;;;;;5049148;28;20028;-82
2021/05/17 11:02:22;;;;;;;0.10;0.10;;;22.60;47.60;;;;;;5045427;28;20036;-80
2021/05/17 11:04:48;;;;;;;0.10;0.10;;;22.50;47.80;;;;;;5047119;28;20029;-84
2021/05/17 11:07:23;;;;;;;0.43;0.13;;;22.20;48.90;;;;;;5043021;28;20033;-84
2021/05/17 11:09:56;;;;;;;0.40;0.20;;;21.90;52.00;;;;;;5043702;28;20484;-81
2021/05/17 11:12:28;;;;;;;0.30;0.10;;;21.50;53.10;;;;;;5043739;28;20036;-82
2021/05/17 11:15:06;;;;;;;0.15;0.10;;;20.90;53.30;;;;;;5045946;28;20511;-81
2021/05/17 11:17:54;;;;;;;0.10;0.10;;;20.70;54.70;;;;;;5048773;28;20029;-90
2021/05/17 11:20:41;;;;;;;0.20;0.10;;;20.30;55.30;;;;;;5045549;28;20053;-87
2021/05/17 11:23:25;;;;;;;0.10;0.10;;;20.20;57.30;;;;;;5047899;28;20100;-85
2021/05/17 11:28:34;;;;;;;0.20;0.10;;;20.40;61.00;;;;;;5050265;28;20033;-89
2021/05/17 11:31:15;;;;;;;0.17;0.10;;;20.40;60.00;;;;;;5046596;28;20025;-86
2021/05/17 11:33:57;;;;;;;0.13;0.10;;;20.40;59.40;;;;;;5048258;28;20350;-87
2021/05/17 11:37:07;;;;;;;0.20;0.10;;;20.40;60.50;;;;;;5048476;28;20685;-84
2021/05/17 11:39:36;;;;;;;0.43;0.20;;;20.50;60.50;;;;;;5043932;28;20032;-84
2021/05/17 11:42:11;;;;;;;0.25;0.10;;;20.80;57.10;;;;;;5035328;28;20051;-85
2021/05/17 11:45:10;;;;;;;0.30;0.20;;;20.80;58.80;;;;;;5049341;28;20017;-83
2021/05/17 11:47:37;;;;;;;0.50;0.20;;;20.60;57.30;;;;;;5048817;28;20082;-86
2021/05/17 11:50:04;;;;;;;0.55;0.25;;;20.70;56.70;;;;;;5043405;28;20481;-84
2021/05/17 11:52:32;;;;;;;0.45;0.20;;;20.90;56.20;;;;;;5050225;28;20029;-84
2021/05/17 11:55:08;;;;;;;0.30;0.10;;;21.10;55.70;;;;;;5046951;28;20025;-84
2021/05/17 11:57:41;;;;;;;0.17;0.13;;;21.40;58.60;;;;;;5044006;28;20499;-84
2021/05/17 12:00:09;;;;;;;0.22;0.10;;;21.50;54.90;;;;;;5046556;28;20014;-85
2021/05/17 12:02:45;;;;;;;0.25;0.10;;;21.40;51.00;;;;;;5050700;28;20024;-83
2021/05/17 12:05:11;;;;;;;0.40;0.10;;;21.30;51.40;;;;;;5048482;28;20477;-83
2021/05/17 12:07:48;;;;;;;0.30;0.13;;;21.10;49.70;;;;;;5058991;28;20082;-83
2021/05/17 12:10:16;;;;;;;0.20;0.10;;;20.90;50.80;;;;;;5046447;28;20045;-83
2021/05/17 12:12:42;;;;;;;0.30;0.10;;;20.90;50.10;;;;;;5042707;28;20036;-83
2021/05/17 12:15:11;;;;;;;0.20;0.10;;;21.00;49.30;;;;;;5054851;28;20095;-83
2021/05/17 12:17:37;;;;;;;0.10;0.10;;;21.10;48.90;;;;;;5040560;28;20033;-83
2021/05/17 12:20:17;;;;;;;0.20;0.10;;;21.30;50.60;;;;;;5035905;28;20021;-83
2021/05/17 12:22:44;;;;;;;;;;;;;;;;;;5046054;28;20052;-83
2021/05/17 12:25:18;;;;;;;0.22;0.20;;;;;;;;;;5075217;28;19924;-83
2021/05/17 12:27:46;;;;;;;0.15;0.10;;;21.60;50.40;;;;;;5076911;28;20410;-84
2021/05/17 12:30:25;;;;;;;0.40;0.20;;;22.00;46.80;;;;;;5077146;28;20107;-83
2021/05/17 12:32:53;;;;;;;0.30;0.10;;;21.80;47.90;;;;;;5038138;28;20083;-83
2021/05/17 12:35:34;;;;;;;0.32;0.20;;;21.40;48.40;;;;;;5038363;28;20037;-83
2021/05/17 12:38:05;;;;;;;0.30;0.10;;;21.10;49.30;;;;;;5077088;28;20016;-83
2021/05/17 12:40:32;;;;;;;0.17;0.10;;;20.70;50.30;;;;;;5055913;28;20107;-83
2021/05/17 12:43:21;;;;;;;0.20;0.10;;;20.40;52.00;;;;;;5057384;28;20082;-84
2021/05/17 12:45:46;;;;;;;0.13;0.10;;;20.30;53.40;;;;;;5056981;28;20021;-84
2021/05/17 12:48:32;;;;;;;0.10;0.10;;;19.90;53.90;;;;;;5052667;28;20109;-83
2021/05/17 12:51:00;;;;;;;0.28;0.20;;;19.90;55.10;;;;;;5063945;28;20116;-83
2021/05/17 12:53:29;;;;;;;0.10;0.10;;;19.80;55.50;;;;;;5049348;28;20038;-83
2021/05/17 12:56:00;;;;;;;0.20;0.10;;;19.80;55.20;;;;;;5035920;28;20701;-83
2021/05/17 12:58:34;;;;;;;0.32;0.20;;;19.60;57.40;;;;;;5036587;28;20082;-83
2021/05/17 13:01:13;;;;;;;0.20;0.10;;;19.50;58.60;;;;;;5037132;28;20021;-83
2021/05/17 13:03:49;;;;;;;0.20;0.20;;;19.50;59.80;;;;;;5036833;28;20542;-84
2021/05/17 13:06:27;;;;;;;0.20;0.20;;;19.60;61.70;;;;;;5044838;28;20029;-83
2021/05/17 13:09:18;;;;;;;0.40;0.20;;;20.10;59.30;;;;;;5053341;28;20116;-83
2021/05/17 13:11:44;;;;;;;0.30;0.20;;;20.60;61.40;;;;;;5054621;28;20053;-84
2021/05/17 13:14:12;;;;;;;0.10;0.10;;;21.00;56.10;;;;;;5036622;28;20045;-84
2021/05/17 13:16:39;;;;;;;0.30;0.10;;;21.20;57.30;;;;;;5046182;28;20561;-84
2021/05/17 13:21:58;;;;;;;0.10;0.10;;;20.90;52.40;;;;;;5047046;28;20519;-83
2021/05/17 13:30:13;;;;;;;0.32;0.20;;;20.30;52.40;;;;;;5059332;28;20059;-83
2021/05/17 13:32:40;;;;;;;;;;;20.20;52.70;;;;;;5062715;28;20021;-83
2021/05/17 13:35:10;;;;;;;0.20;0.10;;;20.00;52.90;;;;;;5067446;28;20503;-84
2021/05/17 13:37:38;;;;;;;0.20;0.20;;;19.90;54.80;;;;;;5069481;28;20029;-83
2021/05/17 13:40:09;;;;;;;0.30;0.20;;;19.70;56.20;;;;;;5066975;28;20088;-83
2021/05/17 13:42:38;;;;;;;0.40;0.20;;;19.60;56.00;;;;;;5064197;28;20411;-84
2021/05/17 13:45:07;;;;;;;0.68;0.25;;;19.50;56.50;;;;;;5065012;28;20039;-83
2021/05/17 13:47:33;;;;;;;0.32;0.20;;;19.40;57.70;;;;;;5068484;28;20044;-83
2021/05/17 13:49:59;;;;;;;0.77;0.40;;;19.40;58.60;;;;;;5063128;28;20100;-83
2021/05/17 13:52:25;;;;;;;0.55;0.28;;;19.60;58.40;;;;;;5053383;28;20110;-83
2021/05/17 13:54:50;;;;;;;0.40;0.20;;;19.70;59.20;;;;;;5064966;28;20093;-83